createdAt,value
2023-03-15T00:00:53.843Z,6.20
2023-03-15T00:03:24.447Z,5.70
2023-03-15T00:05:53.451Z,4.73
2023-03-15T00:08:22.805Z,3.87
2023-03-15T00:10:51.105Z,4.57
2023-03-15T00:13:19.425Z,6.77
2023-03-15T00:15:49.119Z,4.87
2023-03-15T00:18:20.635Z,2.97
2023-03-15T00:20:49.469Z,3.23
2023-03-15T00:23:18.271Z,6.37
2023-03-15T00:25:47.039Z,3.73
2023-03-15T00:28:15.943Z,5.40
2023-03-15T00:30:45.068Z,3.93
2023-03-15T00:33:14.853Z,4.73
2023-03-15T00:35:46.203Z,3.80
2023-03-15T00:38:15.032Z,6.07
2023-03-15T00:40:43.319Z,3.67
2023-03-15T00:43:11.681Z,4.17
2023-03-15T00:45:39.972Z,3.70
2023-03-15T00:48:08.283Z,3.17
2023-03-15T00:50:36.612Z,2.77
2023-03-15T00:53:06.337Z,3.77
2023-03-15T00:55:34.640Z,4.27
2023-03-15T00:58:02.976Z,8.73
2023-03-15T01:00:31.425Z,3.20
2023-03-15T01:02:59.782Z,5.70
2023-03-15T01:05:28.117Z,3.67
2023-03-15T01:07:56.415Z,4.87
2023-03-15T01:10:26.116Z,3.90
2023-03-15T01:12:54.459Z,6.70
2023-03-15T01:15:22.867Z,7.10
2023-03-15T01:17:51.185Z,2.70
2023-03-15T01:20:19.768Z,5.67
2023-03-15T01:22:48.037Z,6.40
2023-03-15T01:25:16.513Z,3.97
2023-03-15T01:27:46.200Z,3.93
2023-03-15T01:30:14.884Z,3.70
2023-03-15T01:32:43.189Z,6.70
2023-03-15T01:35:12.002Z,7.20
2023-03-15T01:37:40.458Z,5.90
2023-03-15T01:40:15.050Z,6.57
2023-03-15T01:43:16.987Z,9.20
2023-03-15T01:46:34.444Z,5.70
2023-03-15T01:49:08.701Z,5.30
2023-03-15T01:51:41.827Z,9.43
2023-03-15T01:54:14.660Z,11.10
2023-03-15T01:56:47.159Z,12.03
2023-03-15T01:59:23.297Z,7.20
2023-03-15T02:01:54.686Z,8.10
2023-03-15T02:04:26.576Z,12.17
2023-03-15T02:06:59.410Z,5.73
2023-03-15T02:09:31.913Z,6.80
2023-03-15T02:12:01.072Z,5.80
2023-03-15T02:14:32.211Z,8.10
2023-03-15T02:17:00.569Z,5.30
2023-03-15T02:19:41.603Z,7.70
2023-03-15T02:22:21.816Z,8.47
2023-03-15T02:24:55.350Z,6.23
2023-03-15T02:27:30.261Z,6.00
2023-03-15T02:29:58.867Z,4.47
2023-03-15T02:32:27.289Z,6.17
2023-03-15T02:34:55.610Z,5.27
2023-03-15T02:37:23.866Z,11.70
2023-03-15T02:39:52.177Z,9.80
2023-03-15T02:42:21.087Z,7.17
2023-03-15T02:44:52.597Z,8.47
2023-03-15T02:47:24.093Z,9.10
2023-03-15T02:49:54.022Z,9.43
2023-03-15T02:52:23.021Z,7.50
2023-03-15T02:54:51.552Z,4.47
2023-03-15T02:57:20.918Z,4.77
2023-03-15T02:59:51.096Z,6.87
2023-03-15T03:02:19.800Z,7.70
2023-03-15T03:04:48.101Z,5.73
2023-03-15T03:07:16.690Z,10.27
2023-03-15T03:09:45.051Z,10.87
2023-03-15T03:12:13.465Z,10.67
2023-03-15T03:14:43.483Z,10.57
2023-03-15T03:17:13.172Z,6.97
2023-03-15T03:19:41.537Z,8.03
2023-03-15T03:22:10.136Z,6.30
2023-03-15T03:24:38.466Z,5.40
2023-03-15T03:27:07.142Z,6.30
2023-03-15T03:29:35.412Z,5.50
2023-03-15T03:32:03.741Z,8.33
2023-03-15T03:34:33.378Z,8.13
2023-03-15T03:37:01.739Z,8.87
2023-03-15T03:39:30.874Z,8.50
2023-03-15T03:41:59.163Z,8.37
2023-03-15T03:44:27.626Z,7.23
2023-03-15T03:46:55.945Z,5.80
2023-03-15T03:49:24.215Z,6.87
2023-03-15T03:51:53.928Z,5.27
2023-03-15T03:54:22.507Z,6.47
2023-03-15T03:56:50.902Z,5.57
2023-03-15T03:59:19.228Z,5.17
2023-03-15T04:01:48.297Z,8.77
2023-03-15T04:04:16.846Z,6.43
2023-03-15T04:06:46.127Z,5.37
2023-03-15T04:09:17.628Z,5.57
2023-03-15T04:11:46.131Z,5.03
2023-03-15T04:14:15.921Z,6.17
2023-03-15T04:16:44.203Z,9.10
2023-03-15T04:19:13.803Z,8.47
2023-03-15T04:21:47.671Z,10.93
2023-03-15T04:24:17.524Z,6.97
2023-03-15T04:26:45.849Z,5.03
2023-03-15T04:29:15.357Z,11.43
2023-03-15T04:31:43.813Z,7.57
2023-03-15T04:34:12.123Z,6.37
2023-03-15T04:36:42.718Z,7.30
2023-03-15T04:39:11.054Z,7.20
2023-03-15T04:41:40.738Z,5.77
2023-03-15T04:44:09.045Z,7.27
2023-03-15T04:46:37.322Z,10.80
2023-03-15T04:49:06.176Z,7.63
2023-03-15T04:51:35.067Z,7.87
2023-03-15T04:54:04.657Z,8.00
2023-03-15T04:56:32.979Z,6.83
2023-03-15T04:59:02.723Z,6.77
2023-03-15T05:01:32.977Z,6.70
2023-03-15T05:04:01.485Z,6.80
2023-03-15T05:06:30.210Z,12.03
2023-03-15T05:08:58.573Z,8.50
2023-03-15T05:11:26.963Z,10.37
2023-03-15T05:13:55.287Z,11.23
2023-03-15T05:16:25.010Z,8.90
2023-03-15T05:18:54.086Z,10.60
2023-03-15T05:21:22.486Z,9.57
2023-03-15T05:23:51.574Z,10.10
2023-03-15T05:26:19.905Z,13.47
2023-03-15T05:28:48.202Z,9.47
2023-03-15T05:31:16.586Z,9.93
2023-03-15T05:33:47.133Z,9.77
2023-03-15T05:36:15.698Z,9.70
2023-03-15T05:38:45.596Z,12.33
2023-03-15T05:41:18.389Z,7.53
2023-03-15T05:43:46.796Z,7.13
2023-03-15T05:46:15.394Z,8.97
2023-03-15T05:48:45.147Z,10.33
2023-03-15T05:51:13.911Z,9.50
2023-03-15T05:53:44.122Z,7.13
2023-03-15T05:56:13.647Z,7.43
2023-03-15T05:58:41.930Z,8.50
2023-03-15T06:01:10.876Z,7.03
2023-03-15T06:03:39.251Z,6.70
2023-03-15T06:06:09.207Z,11.37
2023-03-15T06:08:37.582Z,5.17
2023-03-15T06:11:05.876Z,7.43
2023-03-15T06:13:34.474Z,10.57
2023-03-15T06:16:02.812Z,7.23
2023-03-15T06:18:31.137Z,8.77
2023-03-15T06:20:59.444Z,6.20
2023-03-15T06:23:29.116Z,7.50
2023-03-15T06:25:57.403Z,11.53
2023-03-15T06:28:25.788Z,8.00
2023-03-15T06:30:54.190Z,7.47
2023-03-15T06:33:24.485Z,6.60
2023-03-15T06:35:52.814Z,10.87
2023-03-15T06:38:21.238Z,8.37
2023-03-15T06:40:50.921Z,9.53
2023-03-15T06:43:19.813Z,14.87
2023-03-15T06:45:48.325Z,10.87
2023-03-15T06:48:17.511Z,8.87
2023-03-15T06:50:47.637Z,6.23
2023-03-15T06:53:16.884Z,7.00
2023-03-15T06:55:45.322Z,8.00
2023-03-15T06:58:16.446Z,11.03
2023-03-15T07:00:45.028Z,10.70
2023-03-15T07:03:13.415Z,6.57
2023-03-15T07:05:41.703Z,7.47
2023-03-15T07:08:10.139Z,7.80
2023-03-15T07:10:38.458Z,7.40
2023-03-15T07:13:07.050Z,8.20
2023-03-15T07:15:37.695Z,7.07
2023-03-15T07:18:06.106Z,7.23
2023-03-15T07:20:36.293Z,8.20
2023-03-15T07:23:05.972Z,6.93
2023-03-15T07:25:44.979Z,11.30
2023-03-15T07:28:20.570Z,7.03
2023-03-15T07:30:56.430Z,7.63
2023-03-15T07:33:25.707Z,8.47
2023-03-15T07:35:54.724Z,7.47
2023-03-15T07:38:24.101Z,9.00
2023-03-15T07:40:52.489Z,8.57
2023-03-15T07:43:20.854Z,7.30
2023-03-15T07:45:49.162Z,6.90
2023-03-15T07:48:18.818Z,7.90
2023-03-15T07:50:47.737Z,9.17
2023-03-15T07:53:16.449Z,5.23
2023-03-15T07:55:45.002Z,7.43
2023-03-15T07:58:13.372Z,7.67
2023-03-15T08:00:42.294Z,9.90
2023-03-15T08:03:11.091Z,6.17
2023-03-15T08:05:41.187Z,7.30
2023-03-15T08:08:09.431Z,7.03
2023-03-15T08:10:37.768Z,7.27
2023-03-15T08:13:06.116Z,8.30
2023-03-15T08:15:34.419Z,9.63
2023-03-15T08:18:04.161Z,6.93
2023-03-15T08:20:35.002Z,6.53
2023-03-15T08:23:04.695Z,8.30
2023-03-15T08:25:33.288Z,9.80
2023-03-15T08:28:02.484Z,6.90
2023-03-15T08:30:30.845Z,8.67
2023-03-15T08:32:59.361Z,6.43
2023-03-15T08:35:27.769Z,9.43
2023-03-15T08:37:56.786Z,8.57
2023-03-15T08:40:26.628Z,7.37
2023-03-15T08:42:55.461Z,7.03
2023-03-15T08:45:25.197Z,7.57
2023-03-15T08:47:56.976Z,8.77
2023-03-15T08:50:26.560Z,10.50
2023-03-15T08:52:55.439Z,8.93
2023-03-15T08:55:25.186Z,7.00
2023-03-15T08:57:53.556Z,7.73
2023-03-15T09:00:23.110Z,5.00
2023-03-15T09:02:53.418Z,5.23
2023-03-15T09:05:22.984Z,6.97
2023-03-15T09:07:53.103Z,10.47
2023-03-15T09:10:22.276Z,9.80
2023-03-15T09:12:54.022Z,9.03
2023-03-15T09:15:22.577Z,9.03
2023-03-15T09:17:53.151Z,10.07
2023-03-15T09:20:28.130Z,9.83
2023-03-15T09:22:58.249Z,9.30
2023-03-15T09:25:27.470Z,6.73
2023-03-15T09:27:57.377Z,5.93
2023-03-15T09:30:25.737Z,14.30
2023-03-15T09:32:54.196Z,6.87
2023-03-15T09:35:23.435Z,8.27
2023-03-15T09:37:52.487Z,6.87
2023-03-15T09:40:23.829Z,9.70
2023-03-15T09:43:03.491Z,10.20
2023-03-15T09:45:48.805Z,7.30
2023-03-15T09:48:22.567Z,6.70
2023-03-15T09:50:54.983Z,8.63
2023-03-15T09:53:29.049Z,6.17
2023-03-15T09:55:57.344Z,6.07
2023-03-15T09:58:32.769Z,6.33
2023-03-15T10:01:04.008Z,5.90
2023-03-15T10:03:38.838Z,7.47
2023-03-15T10:06:14.158Z,8.03
2023-03-15T10:08:42.547Z,8.43
2023-03-15T10:11:16.027Z,9.57
2023-03-15T10:13:59.704Z,9.07
2023-03-15T10:16:40.656Z,7.30
2023-03-15T10:19:18.525Z,7.40
2023-03-15T10:21:54.908Z,8.00
2023-03-15T10:24:32.695Z,4.53
2023-03-15T10:27:08.303Z,6.37
2023-03-15T10:29:38.508Z,9.20
2023-03-15T10:32:17.918Z,5.60
2023-03-15T10:34:49.795Z,5.47
2023-03-15T10:37:18.088Z,7.77
2023-03-15T10:39:51.644Z,6.50
2023-03-15T10:42:28.154Z,5.20
2023-03-15T10:44:58.582Z,5.37
2023-03-15T10:47:29.058Z,4.43
2023-03-15T10:50:08.315Z,3.37
2023-03-15T10:52:39.367Z,5.27
2023-03-15T10:55:12.618Z,6.60
2023-03-15T10:57:43.012Z,7.37
2023-03-15T11:00:27.226Z,6.73
2023-03-15T11:03:04.390Z,10.37
2023-03-15T11:05:38.089Z,7.43
2023-03-15T11:08:14.298Z,5.47
2023-03-15T11:10:44.371Z,6.20
2023-03-15T11:13:21.943Z,5.37
2023-03-15T11:16:01.660Z,4.57
2023-03-15T11:18:33.383Z,6.27
2023-03-15T11:21:06.033Z,9.13
2023-03-15T11:23:37.946Z,6.07
2023-03-15T11:26:07.359Z,6.00
2023-03-15T11:28:38.543Z,5.70
2023-03-15T11:31:08.500Z,4.43
2023-03-15T11:33:45.007Z,4.97
2023-03-15T11:36:18.899Z,5.33
2023-03-15T11:38:47.877Z,6.87
2023-03-15T11:41:26.622Z,5.33
2023-03-15T11:44:03.652Z,7.10
2023-03-15T11:46:38.037Z,5.23
2023-03-15T11:49:15.490Z,7.70
2023-03-15T11:51:43.904Z,5.93
2023-03-15T11:54:15.738Z,6.70
2023-03-15T11:56:50.685Z,5.97
2023-03-15T11:59:25.497Z,6.10
2023-03-15T12:01:59.200Z,5.93
2023-03-15T12:04:45.064Z,6.23
2023-03-15T12:07:39.903Z,6.67
2023-03-15T12:10:32.609Z,4.43
2023-03-15T12:13:09.070Z,6.67
2023-03-15T12:15:47.055Z,3.23
2023-03-15T12:18:23.267Z,6.47
2023-03-15T12:20:58.843Z,5.33
2023-03-15T12:23:39.473Z,7.87
2023-03-15T12:26:11.063Z,5.13
2023-03-15T12:28:44.131Z,6.87
2023-03-15T12:31:14.563Z,10.63
2023-03-15T12:33:50.792Z,6.53
2023-03-15T12:36:27.971Z,6.77
2023-03-15T12:39:02.034Z,7.73
2023-03-15T12:41:39.410Z,9.23
2023-03-15T12:44:25.708Z,12.50
2023-03-15T12:47:01.186Z,6.13
2023-03-15T12:49:34.916Z,6.07
2023-03-15T12:52:05.360Z,5.63
2023-03-15T12:54:42.966Z,4.10
2023-03-15T12:57:13.163Z,7.20
2023-03-15T12:59:53.186Z,8.47
2023-03-15T13:02:43.274Z,4.70
2023-03-15T13:05:21.902Z,4.27
2023-03-15T13:07:57.012Z,7.23
2023-03-15T13:10:57.302Z,7.83
2023-03-15T13:13:52.780Z,5.43
2023-03-15T13:16:31.137Z,8.13
2023-03-15T13:19:10.429Z,9.77
2023-03-15T13:21:49.772Z,10.33
2023-03-15T13:24:23.583Z,6.00
2023-03-15T13:26:58.553Z,5.57
2023-03-15T13:29:31.256Z,5.40
2023-03-15T13:32:08.107Z,7.50
2023-03-15T13:34:36.884Z,4.10
2023-03-15T13:37:15.164Z,3.27
2023-03-15T13:39:55.998Z,5.17
2023-03-15T13:42:25.789Z,4.87
2023-03-15T13:45:14.286Z,12.65
2023-03-15T13:47:44.124Z,7.55
2023-03-15T13:50:16.474Z,6.05
2023-03-15T13:52:47.077Z,6.10
2023-03-15T13:55:16.663Z,5.38
2023-03-15T13:57:45.221Z,4.00
2023-03-15T14:00:19.469Z,3.30
2023-03-15T14:02:50.063Z,7.10
2023-03-15T14:05:27.537Z,7.78
2023-03-15T14:08:02.804Z,4.43
2023-03-15T14:10:33.187Z,7.00
2023-03-15T14:13:22.459Z,6.78
2023-03-15T14:15:51.462Z,4.97
2023-03-15T14:18:25.013Z,6.50
2023-03-15T14:21:01.659Z,10.00
2023-03-15T14:23:32.287Z,7.13
2023-03-15T14:26:11.844Z,3.67
2023-03-15T14:28:40.801Z,6.80
2023-03-15T14:31:09.332Z,5.07
2023-03-15T14:33:40.429Z,6.32
2023-03-15T14:36:11.259Z,8.75
2023-03-15T14:38:41.293Z,9.20
2023-03-15T14:41:20.459Z,7.85
2023-03-15T14:43:48.789Z,5.95
2023-03-15T14:46:17.601Z,4.32
2023-03-15T14:48:46.546Z,7.88
2023-03-15T14:51:17.822Z,6.07
2023-03-15T14:53:49.754Z,4.43
2023-03-15T14:56:19.772Z,4.90
2023-03-15T14:58:49.553Z,5.13
2023-03-15T15:01:22.524Z,11.15
2023-03-15T15:03:54.924Z,3.80
2023-03-15T15:06:23.240Z,4.43
2023-03-15T15:08:57.040Z,4.33
2023-03-15T15:11:25.533Z,7.13
2023-03-15T15:13:54.158Z,3.33
2023-03-15T15:16:22.789Z,3.77
2023-03-15T15:18:51.220Z,6.87
2023-03-15T15:21:24.756Z,3.90
2023-03-15T15:23:58.905Z,5.37
2023-03-15T15:26:31.635Z,4.73
2023-03-15T15:29:00.787Z,4.60
2023-03-15T15:31:33.787Z,6.17
2023-03-15T15:34:02.672Z,4.87
2023-03-15T15:36:33.495Z,6.60
2023-03-15T15:39:07.255Z,5.87
2023-03-15T15:41:36.066Z,4.77
2023-03-15T15:44:04.880Z,7.20
2023-03-15T15:46:33.273Z,6.47
2023-03-15T15:49:01.639Z,5.77
2023-03-15T15:51:31.893Z,6.57
2023-03-15T15:54:03.085Z,6.23
2023-03-15T15:56:40.090Z,9.60
2023-03-15T15:59:13.839Z,6.80
2023-03-15T16:01:56.547Z,7.20
2023-03-15T16:04:27.724Z,6.40
2023-03-15T16:06:58.698Z,10.53
2023-03-15T16:09:30.179Z,9.97
2023-03-15T16:11:58.924Z,9.07
2023-03-15T16:14:27.264Z,6.37
2023-03-15T16:16:55.689Z,12.97
2023-03-15T16:19:24.011Z,13.07
2023-03-15T16:21:54.501Z,7.80
2023-03-15T16:24:26.435Z,8.30
2023-03-15T16:27:00.382Z,6.93
2023-03-15T16:29:33.727Z,7.47
2023-03-15T16:32:15.866Z,5.37
2023-03-15T16:34:47.637Z,7.60
2023-03-15T16:37:18.070Z,11.90
2023-03-15T16:39:50.826Z,6.83
2023-03-15T16:42:21.293Z,7.40
2023-03-15T16:44:50.212Z,11.93
2023-03-15T16:47:19.219Z,11.67
2023-03-15T16:49:47.670Z,11.07
2023-03-15T16:52:17.260Z,13.80
2023-03-15T16:54:47.718Z,12.73
2023-03-15T16:57:22.032Z,10.57
2023-03-15T16:59:50.633Z,10.67
2023-03-15T17:02:21.009Z,10.73
2023-03-15T17:04:49.515Z,9.27
2023-03-15T17:07:18.714Z,27.03
2023-03-15T17:09:49.432Z,27.43
2023-03-15T17:12:24.621Z,23.73
2023-03-15T17:14:53.365Z,21.40
2023-03-15T17:17:21.689Z,16.13
2023-03-15T17:19:50.076Z,18.57
2023-03-15T17:22:19.176Z,13.77
2023-03-15T17:24:47.995Z,12.60
2023-03-15T17:27:22.892Z,13.37
2023-03-15T17:29:52.980Z,17.50
2023-03-15T17:32:21.379Z,13.40
2023-03-15T17:34:52.818Z,17.33
2023-03-15T17:37:21.166Z,9.07
2023-03-15T17:39:49.673Z,17.83
2023-03-15T17:42:19.737Z,12.90
2023-03-15T17:44:48.437Z,7.50
2023-03-15T17:47:18.651Z,12.83
2023-03-15T17:49:48.344Z,11.53
2023-03-15T17:52:17.748Z,9.93
2023-03-15T17:54:46.461Z,16.40
2023-03-15T17:57:14.853Z,11.27
2023-03-15T17:59:43.318Z,17.67
2023-03-15T18:02:17.606Z,13.93
2023-03-15T18:04:46.350Z,12.30
2023-03-15T18:07:14.860Z,10.83
2023-03-15T18:09:43.237Z,12.27
2023-03-15T18:12:14.888Z,11.70
2023-03-15T18:14:43.823Z,15.67
2023-03-15T18:17:12.730Z,17.43
2023-03-15T18:19:42.574Z,19.67
2023-03-15T18:22:17.328Z,17.90
2023-03-15T18:24:47.160Z,17.23
2023-03-15T18:27:15.602Z,24.80
2023-03-15T18:29:43.918Z,15.20
2023-03-15T18:32:12.421Z,18.80
2023-03-15T18:34:42.365Z,18.87
2023-03-15T18:37:11.735Z,23.57
2023-03-15T18:39:40.047Z,18.40
2023-03-15T18:42:08.344Z,14.70
2023-03-15T18:44:36.640Z,13.23
2023-03-15T18:47:08.339Z,13.90
2023-03-15T18:49:36.844Z,16.10
2023-03-15T18:52:06.784Z,15.60
2023-03-15T18:54:35.130Z,14.97
2023-03-15T18:57:03.466Z,14.00
2023-03-15T18:59:31.859Z,15.10
2023-03-15T19:02:00.286Z,12.57
2023-03-15T19:04:28.822Z,14.47
2023-03-15T19:06:57.237Z,15.97
2023-03-15T19:09:26.982Z,13.67
2023-03-15T19:11:55.447Z,12.77
2023-03-15T19:14:24.000Z,12.85
2023-03-15T19:16:54.124Z,17.37
2023-03-15T19:19:22.921Z,12.47
2023-03-15T19:21:51.214Z,13.43
2023-03-15T19:24:19.538Z,12.10
2023-03-15T19:26:49.151Z,12.53
2023-03-15T19:29:17.479Z,20.47
2023-03-15T19:31:45.734Z,12.97
2023-03-15T19:34:14.082Z,16.90
2023-03-15T19:36:42.498Z,12.73
2023-03-15T19:39:12.396Z,10.83
2023-03-15T19:41:41.363Z,22.67
2023-03-15T19:44:11.257Z,13.73
2023-03-15T19:46:40.237Z,15.10
2023-03-15T19:49:08.989Z,14.83
2023-03-15T19:51:37.440Z,13.60
2023-03-15T19:54:06.056Z,13.23
2023-03-15T19:56:34.555Z,16.17
2023-03-15T19:59:03.307Z,15.30
2023-03-15T20:01:33.514Z,19.17
2023-03-15T20:04:02.269Z,18.87
2023-03-15T20:06:30.752Z,14.63
2023-03-15T20:08:59.156Z,17.97
2023-03-15T20:11:29.388Z,16.20
2023-03-15T20:13:57.751Z,16.90
2023-03-15T20:16:26.123Z,15.03
2023-03-15T20:18:56.937Z,14.60
2023-03-15T20:21:25.270Z,17.07
2023-03-15T20:23:54.233Z,14.70
2023-03-15T20:26:24.031Z,17.57
2023-03-15T20:28:52.338Z,19.70
2023-03-15T20:31:22.924Z,18.87
2023-03-15T20:33:52.401Z,17.47
2023-03-15T20:36:22.479Z,16.90
2023-03-15T20:38:50.803Z,21.93
2023-03-15T20:41:19.384Z,22.23
2023-03-15T20:43:47.850Z,17.60
2023-03-15T20:46:18.780Z,15.37
2023-03-15T20:48:47.337Z,18.87
2023-03-15T20:51:15.681Z,18.97
2023-03-15T20:53:45.479Z,19.27
2023-03-15T20:56:14.314Z,16.90
2023-03-15T20:58:42.684Z,14.60
2023-03-15T21:01:13.175Z,17.90
2023-03-15T21:03:44.570Z,20.80
2023-03-15T21:06:13.209Z,18.87
2023-03-15T21:08:41.668Z,16.50
2023-03-15T21:11:11.537Z,22.57
2023-03-15T21:13:39.838Z,22.70
2023-03-15T21:16:08.531Z,19.80
2023-03-15T21:18:37.768Z,23.50
2023-03-15T21:21:08.320Z,22.73
2023-03-15T21:23:37.073Z,25.53
2023-03-15T21:26:07.716Z,25.23
2023-03-15T21:28:37.812Z,25.30
2023-03-15T21:31:06.741Z,20.67
2023-03-15T21:33:35.537Z,24.50
2023-03-15T21:36:04.486Z,20.37
2023-03-15T21:38:35.209Z,19.60
2023-03-15T21:41:09.182Z,18.30
2023-03-15T21:43:39.589Z,24.27
2023-03-15T21:46:09.683Z,25.00
2023-03-15T21:48:38.234Z,26.87
2023-03-15T21:51:07.691Z,29.73
2023-03-15T21:53:37.133Z,23.23
2023-03-15T21:56:05.762Z,25.00
2023-03-15T21:58:34.434Z,28.83
2023-03-15T22:01:06.058Z,26.67
2023-03-15T22:03:36.384Z,22.73
2023-03-15T22:06:05.069Z,25.93
2023-03-15T22:08:34.343Z,31.87
2023-03-15T22:11:02.643Z,30.90
2023-03-15T22:13:31.225Z,28.27
2023-03-15T22:15:59.879Z,28.17
2023-03-15T22:18:29.976Z,24.67
2023-03-15T22:20:58.367Z,25.83
2023-03-15T22:23:26.771Z,23.63
2023-03-15T22:25:57.162Z,22.10
2023-03-15T22:28:26.247Z,28.00
2023-03-15T22:30:55.033Z,30.37
2023-03-15T22:33:23.537Z,34.30
2023-03-15T22:35:58.156Z,28.17
2023-03-15T22:38:28.812Z,25.60
2023-03-15T22:41:08.067Z,42.03
2023-03-15T22:43:36.750Z,28.60
2023-03-15T22:46:05.311Z,31.60
2023-03-15T22:48:33.697Z,29.30
2023-03-15T22:51:04.594Z,35.77
2023-03-15T22:53:34.998Z,30.70
2023-03-15T22:56:03.801Z,28.37
2023-03-15T22:58:32.197Z,31.17
2023-03-15T23:01:00.838Z,29.80
2023-03-15T23:03:29.520Z,31.83
2023-03-15T23:05:57.963Z,29.13
2023-03-15T23:08:27.734Z,32.40
2023-03-15T23:10:58.024Z,26.03
2023-03-15T23:13:26.499Z,33.60
2023-03-15T23:15:55.110Z,32.43
2023-03-15T23:18:23.667Z,35.20
2023-03-15T23:20:52.186Z,27.73
2023-03-15T23:23:20.466Z,34.07
2023-03-15T23:25:54.071Z,33.87
2023-03-15T23:28:24.437Z,35.03
2023-03-15T23:30:52.859Z,35.80
2023-03-15T23:33:21.299Z,25.60
2023-03-15T23:35:49.641Z,30.43
2023-03-15T23:38:17.890Z,31.97
2023-03-15T23:40:46.373Z,32.03
2023-03-15T23:43:16.028Z,26.57
2023-03-15T23:45:44.477Z,29.57
2023-03-15T23:48:12.936Z,29.50
2023-03-15T23:50:44.327Z,31.30
2023-03-15T23:53:12.594Z,33.40
2023-03-15T23:55:41.291Z,31.90
2023-03-15T23:58:09.571Z,26.00
